Time;durP1;ratioP1;P1;durP2;ratioP2;P2;SDS_P1;SDS_P2;PMS_P1;PMS_P2;Temp;Humidity;BMP_temperature;BMP_pressure;BME280_temperature;BME280_humidity;BME280_pressure;Samples;Min_cycle;Max_cycle;Signal;HPM_P1;HPM_P2
2023/08/27 00:00:07;;;;;;;3.80;3.50;;;16.00;99.90;;;;;;4911666;29;20108;-80
2023/08/27 00:02:33;;;;;;;4.80;3.17;;;16.00;99.90;;;;;;4899299;29;20033;-79
2023/08/27 00:04:59;;;;;;;6.95;3.67;;;16.00;99.90;;;;;;4880290;29;20039;-79
2023/08/27 00:07:24;;;;;;;3.67;3.40;;;16.00;99.90;;;;;;4896683;29;20039;-79
2023/08/27 00:09:50;;;;;;;4.30;4.00;;;16.00;99.90;;;;;;4897309;29;20079;-80
2023/08/27 00:12:15;;;;;;;8.43;4.22;;;16.00;99.90;;;;;;4897487;29;20338;-80
2023/08/27 00:14:41;;;;;;;5.43;3.70;;;16.00;99.90;;;;;;4913000;29;20032;-80
2023/08/27 00:17:09;;;;;;;6.35;4.20;;;15.90;99.90;;;;;;4900323;29;20537;-80
2023/08/27 00:19:35;;;;;;;4.88;3.83;;;15.90;99.90;;;;;;4887799;29;20045;-79
2023/08/27 00:22:00;;;;;;;6.13;3.97;;;15.90;99.90;;;;;;4897605;29;20027;-79
2023/08/27 00:24:26;;;;;;;4.57;3.97;;;15.80;99.90;;;;;;4889394;29;20066;-80
2023/08/27 00:26:52;;;;;;;4.45;4.05;;;15.80;99.90;;;;;;4899104;29;20035;-79
2023/08/27 00:29:20;;;;;;;4.13;3.70;;;15.80;99.90;;;;;;4901210;29;20103;-80
2023/08/27 00:31:49;;;;;;;7.60;4.07;;;15.80;99.90;;;;;;4897820;29;20029;-80
2023/08/27 00:34:14;;;;;;;4.97;4.10;;;15.80;99.90;;;;;;4888783;29;20024;-80
2023/08/27 00:36:41;;;;;;;4.32;4.03;;;15.80;99.90;;;;;;4901480;29;20066;-79
2023/08/27 00:39:06;;;;;;;4.97;4.43;;;15.70;99.90;;;;;;4879569;29;20380;-79
2023/08/27 00:41:32;;;;;;;5.25;4.85;;;15.70;99.90;;;;;;4896214;29;20087;-80
2023/08/27 00:43:58;;;;;;;7.10;4.88;;;15.70;99.90;;;;;;4897242;29;20067;-79
2023/08/27 00:46:23;;;;;;;12.40;4.70;;;15.60;99.90;;;;;;4895927;29;20039;-80
2023/08/27 00:48:49;;;;;;;7.00;4.88;;;15.70;99.90;;;;;;4892091;29;20119;-80
2023/08/27 00:51:15;;;;;;;5.90;5.03;;;15.70;99.90;;;;;;4894765;29;20052;-79
2023/08/27 00:53:41;;;;;;;5.32;4.90;;;15.70;99.90;;;;;;4896672;29;20032;-79
2023/08/27 00:56:07;;;;;;;5.82;4.95;;;15.70;99.90;;;;;;4895788;29;20021;-79
2023/08/27 00:58:33;;;;;;;6.40;5.07;;;15.70;99.90;;;;;;4908491;29;20072;-79
2023/08/27 01:00:59;;;;;;;6.20;5.18;;;15.60;99.90;;;;;;4892917;29;20024;-80
2023/08/27 01:03:27;;;;;;;8.23;5.40;;;15.60;99.90;;;;;;4911815;29;20036;-80
2023/08/27 01:05:53;;;;;;;5.55;4.93;;;15.60;99.90;;;;;;4912921;29;20111;-79
2023/08/27 01:08:26;;;;;;;9.98;5.68;;;15.60;99.90;;;;;;4887945;29;20115;-79
2023/08/27 01:10:51;;;;;;;;;;;15.60;99.90;;;;;;4880388;29;20127;-80
2023/08/27 01:13:25;;;;;;;9.98;5.32;;;15.60;99.90;;;;;;4910814;29;20073;-80
2023/08/27 01:15:58;;;;;;;7.22;5.30;;;15.60;99.90;;;;;;4895533;29;20107;-79
2023/08/27 01:18:24;;;;;;;11.05;5.30;;;15.60;99.90;;;;;;4897624;29;20039;-80
2023/08/27 01:20:50;;;;;;;5.95;5.18;;;15.60;99.90;;;;;;4900236;29;20043;-79
2023/08/27 01:23:16;;;;;;;7.10;6.00;;;15.60;99.90;;;;;;4887448;29;20028;-80
2023/08/27 01:25:46;;;;;;;7.43;5.65;;;15.50;99.90;;;;;;4885459;29;20082;-79
2023/08/27 01:28:22;;;;;;;5.80;5.20;;;15.50;99.90;;;;;;4910871;29;20021;-80
2023/08/27 01:30:57;;;;;;;5.95;5.32;;;15.50;99.90;;;;;;4895757;29;20032;-80
2023/08/27 01:33:28;;;;;;;6.80;5.45;;;15.40;99.90;;;;;;4897590;29;20135;-80
2023/08/27 01:35:59;;;;;;;6.68;6.07;;;15.40;99.90;;;;;;4895562;29;20063;-79
2023/08/27 01:38:25;;;;;;;9.85;5.90;;;15.40;99.90;;;;;;4897558;29;20028;-79
2023/08/27 01:40:50;;;;;;;6.82;5.63;;;15.40;99.90;;;;;;4896164;29;20064;-80
2023/08/27 01:43:16;;;;;;;9.05;5.90;;;15.50;99.90;;;;;;4895285;29;20110;-80
2023/08/27 01:45:42;;;;;;;9.80;6.05;;;15.40;99.90;;;;;;4898684;29;20400;-80
2023/08/27 01:48:07;;;;;;;12.68;6.15;;;15.40;99.90;;;;;;4886980;29;20756;-80
2023/08/27 01:50:33;;;;;;;7.55;5.72;;;15.20;99.90;;;;;;4896964;29;20032;-80
2023/08/27 01:52:58;;;;;;;7.75;5.95;;;15.20;99.90;;;;;;4898440;29;20044;-80
2023/08/27 01:55:24;;;;;;;9.10;5.85;;;15.20;99.90;;;;;;4903743;29;20035;-80
2023/08/27 01:57:50;;;;;;;8.85;5.70;;;15.20;99.90;;;;;;4912987;29;20091;-79
2023/08/27 02:00:18;;;;;;;6.55;5.90;;;15.30;99.90;;;;;;4900510;29;20020;-80
2023/08/27 02:02:44;;;;;;;8.85;5.85;;;15.30;99.90;;;;;;4897276;29;20429;-79
2023/08/27 02:05:09;;;;;;;8.00;6.03;;;15.40;99.90;;;;;;4900254;29;20037;-80
2023/08/27 02:07:37;;;;;;;14.32;6.05;;;15.50;99.90;;;;;;4913883;29;20025;-81
2023/08/27 02:10:04;;;;;;;7.40;5.85;;;15.50;99.90;;;;;;4897260;29;20072;-80
2023/08/27 02:12:32;;;;;;;8.02;5.20;;;15.60;99.90;;;;;;4898785;29;20045;-80
2023/08/27 02:14:58;;;;;;;6.13;5.22;;;15.60;99.90;;;;;;4905359;29;20036;-80
2023/08/27 02:17:23;;;;;;;10.35;5.32;;;15.60;99.90;;;;;;4887128;29;20080;-81
2023/08/27 02:19:49;;;;;;;8.63;5.38;;;15.70;99.90;;;;;;4911661;29;20042;-80
2023/08/27 02:22:15;;;;;;;10.40;5.00;;;15.70;99.90;;;;;;4884038;29;20044;-80
2023/08/27 02:24:40;;;;;;;6.97;6.03;;;15.60;99.90;;;;;;4901193;29;20124;-80
2023/08/27 02:27:08;;;;;;;13.38;6.20;;;15.60;99.90;;;;;;4890186;29;20027;-80
2023/08/27 02:29:35;;;;;;;6.35;5.75;;;15.60;99.90;;;;;;4898908;29;20025;-80
2023/08/27 02:32:02;;;;;;;8.50;6.00;;;15.60;99.90;;;;;;4899680;29;20123;-81
2023/08/27 02:34:28;;;;;;;7.20;6.00;;;15.60;99.90;;;;;;4888421;29;20484;-80
2023/08/27 02:36:53;;;;;;;6.55;5.85;;;15.60;99.90;;;;;;4894213;29;20068;-81
2023/08/27 02:39:19;;;;;;;8.35;5.93;;;15.60;99.90;;;;;;4897090;29;20020;-80
2023/08/27 02:41:44;;;;;;;6.68;5.65;;;15.60;99.90;;;;;;4889685;29;20031;-81
2023/08/27 02:44:10;;;;;;;8.52;5.80;;;15.60;99.90;;;;;;4898194;29;20075;-81
2023/08/27 02:46:35;;;;;;;8.88;6.20;;;15.50;99.90;;;;;;4902094;29;20453;-81
2023/08/27 02:49:01;;;;;;;9.90;6.53;;;15.50;99.90;;;;;;4899056;29;20759;-80
2023/08/27 02:51:27;;;;;;;9.70;5.85;;;15.50;99.90;;;;;;4914343;29;20028;-81
2023/08/27 02:53:52;;;;;;;8.50;5.65;;;15.50;99.90;;;;;;4899226;29;20077;-80
2023/08/27 02:56:18;;;;;;;9.60;6.00;;;15.50;99.90;;;;;;4884195;29;20020;-81
2023/08/27 02:58:46;;;;;;;8.38;5.50;;;15.50;99.90;;;;;;4885836;29;20034;-81
2023/08/27 03:01:20;;;;;;;9.20;5.88;;;15.60;99.90;;;;;;4914363;29;20025;-80
2023/08/27 03:03:49;;;;;;;12.98;5.53;;;15.60;99.90;;;;;;4897192;29;20115;-81
2023/08/27 03:06:15;;;;;;;7.72;5.13;;;15.60;99.90;;;;;;4896547;29;20020;-81
2023/08/27 03:08:41;;;;;;;7.55;5.60;;;15.60;99.90;;;;;;4897969;29;20037;-80
2023/08/27 03:11:09;;;;;;;10.98;6.63;;;15.60;99.90;;;;;;4897606;29;20029;-80
2023/08/27 03:13:35;;;;;;;9.98;7.00;;;15.60;99.90;;;;;;4900787;29;20442;-80
2023/08/27 03:16:03;;;;;;;9.93;5.18;;;15.70;99.90;;;;;;4902040;29;20131;-80
2023/08/27 03:18:29;;;;;;;11.82;5.53;;;15.60;99.90;;;;;;4896251;29;20678;-81
2023/08/27 03:20:58;;;;;;;6.60;5.50;;;15.60;99.90;;;;;;4884756;29;20500;-81
2023/08/27 03:23:24;;;;;;;9.38;5.43;;;15.60;99.90;;;;;;4882202;29;20024;-80
2023/08/27 03:25:50;;;;;;;5.95;5.32;;;15.60;99.90;;;;;;4899155;29;20407;-80
2023/08/27 03:28:15;;;;;;;6.22;5.20;;;15.60;99.90;;;;;;4904153;29;20025;-81
2023/08/27 03:30:41;;;;;;;8.73;5.50;;;15.60;99.90;;;;;;4900160;29;20528;-81
2023/08/27 03:33:07;;;;;;;7.63;5.20;;;15.60;99.90;;;;;;4887561;29;20044;-81
2023/08/27 03:35:32;;;;;;;8.40;5.25;;;15.60;99.90;;;;;;4883403;29;20488;-81
2023/08/27 03:37:58;;;;;;;10.18;5.70;;;15.60;99.90;;;;;;4912411;29;20131;-80
2023/08/27 03:40:24;;;;;;;13.13;5.55;;;15.60;99.90;;;;;;4897962;29;20040;-80
2023/08/27 03:42:51;;;;;;;7.22;5.38;;;15.60;99.90;;;;;;4887868;29;20031;-81
2023/08/27 03:45:17;;;;;;;10.10;6.35;;;15.70;99.90;;;;;;4894692;29;20020;-80
2023/08/27 03:47:45;;;;;;;14.82;6.28;;;15.50;99.90;;;;;;4881213;29;20228;-81
2023/08/27 03:50:11;;;;;;;10.90;6.55;;;15.50;99.90;;;;;;4908934;29;20056;-80
2023/08/27 03:52:36;;;;;;;10.18;6.25;;;15.50;99.90;;;;;;4895157;29;20224;-80
2023/08/27 03:55:02;;;;;;;7.00;5.65;;;15.40;99.90;;;;;;4913044;29;20032;-80
2023/08/27 03:57:30;;;;;;;10.30;6.10;;;15.40;99.90;;;;;;4891777;29;20507;-80
2023/08/27 03:59:56;;;;;;;7.07;6.00;;;15.50;99.90;;;;;;4897019;29;20488;-80
2023/08/27 04:02:24;;;;;;;5.07;4.57;;;15.50;99.90;;;;;;4896250;29;20043;-80
2023/08/27 04:04:52;;;;;;;10.43;5.80;;;15.40;99.90;;;;;;4895421;29;20521;-80
2023/08/27 04:07:18;;;;;;;5.38;4.88;;;15.40;99.90;;;;;;4900096;29;20028;-80
2023/08/27 04:09:44;;;;;;;6.22;4.50;;;15.40;99.90;;;;;;4897329;29;21061;-80
2023/08/27 04:12:10;;;;;;;4.65;4.22;;;15.40;99.90;;;;;;4897008;29;20032;-80
2023/08/27 04:14:35;;;;;;;4.57;4.18;;;15.20;99.90;;;;;;4911261;29;20041;-79
2023/08/27 04:17:02;;;;;;;6.45;3.92;;;15.30;99.90;;;;;;4899041;29;20043;-79
2023/08/27 04:19:27;;;;;;;6.25;3.58;;;15.30;99.90;;;;;;4893489;29;20400;-80
2023/08/27 04:21:55;;;;;;;4.82;3.85;;;15.30;99.90;;;;;;4910785;29;20016;-79
2023/08/27 04:24:22;;;;;;;7.05;4.05;;;15.30;99.90;;;;;;4897237;29;20032;-80
2023/08/27 04:26:48;;;;;;;4.55;3.50;;;15.50;99.90;;;;;;4897058;29;20039;-80
2023/08/27 04:29:14;;;;;;;3.58;3.28;;;15.60;99.90;;;;;;4885107;29;20029;-80
2023/08/27 04:31:39;;;;;;;5.68;2.97;;;15.60;99.90;;;;;;4899067;29;20051;-79
2023/08/27 04:34:05;;;;;;;4.78;2.80;;;15.70;99.90;;;;;;4896781;29;20016;-79
2023/08/27 04:36:31;;;;;;;3.83;2.90;;;15.60;99.90;;;;;;4893697;29;20039;-79
2023/08/27 04:38:56;;;;;;;3.63;2.65;;;15.60;99.90;;;;;;4898115;29;20016;-80
2023/08/27 04:41:22;;;;;;;3.40;3.10;;;15.70;99.90;;;;;;4897763;29;20051;-79
2023/08/27 04:43:47;;;;;;;8.95;3.15;;;15.80;99.90;;;;;;4884405;29;20035;-79
2023/08/27 04:46:13;;;;;;;3.63;2.90;;;15.80;99.90;;;;;;4886154;29;20026;-80
2023/08/27 04:48:39;;;;;;;3.95;2.70;;;15.90;99.90;;;;;;4910792;29;20132;-79
2023/08/27 04:51:07;;;;;;;6.95;3.10;;;15.90;99.90;;;;;;4895020;29;20164;-79
2023/08/27 04:53:33;;;;;;;4.22;2.92;;;15.90;99.90;;;;;;4893883;29;20037;-79
2023/08/27 04:55:58;;;;;;;5.03;3.35;;;15.90;99.90;;;;;;4896893;29;20454;-80
2023/08/27 04:58:24;;;;;;;4.70;4.22;;;15.90;99.90;;;;;;4897799;29;20025;-79
2023/08/27 05:00:53;;;;;;;4.47;3.38;;;15.90;99.90;;;;;;4898107;29;20046;-80
2023/08/27 05:03:19;;;;;;;3.60;3.15;;;15.90;99.90;;;;;;4895202;29;20461;-80
2023/08/27 05:05:47;;;;;;;5.82;3.53;;;15.80;99.90;;;;;;4881833;29;20576;-80
2023/08/27 05:08:12;;;;;;;7.70;3.80;;;15.80;99.90;;;;;;4890085;29;20046;-79
2023/08/27 05:10:39;;;;;;;4.30;3.90;;;15.80;99.90;;;;;;4903187;29;20119;-79
2023/08/27 05:13:05;;;;;;;4.10;3.47;;;15.70;99.90;;;;;;4890466;29;20399;-79
2023/08/27 05:15:30;;;;;;;5.15;4.05;;;15.80;99.90;;;;;;4895774;29;20036;-80
2023/08/27 05:17:56;;;;;;;7.03;3.83;;;15.80;99.90;;;;;;4897953;29;20021;-80
2023/08/27 05:20:24;;;;;;;5.90;3.50;;;15.80;99.90;;;;;;4896688;29;20028;-80
2023/08/27 05:22:49;;;;;;;4.90;3.45;;;15.80;99.90;;;;;;4895122;29;20047;-80
2023/08/27 05:25:15;;;;;;;7.25;4.80;;;15.70;99.90;;;;;;4895774;29;20720;-81
2023/08/27 05:27:44;;;;;;;2.90;2.80;;;15.20;99.90;;;;;;4897610;29;20024;-80
2023/08/27 05:30:16;;;;;;;6.18;5.97;;;14.60;99.90;;;;;;4888099;29;20044;-81
2023/08/27 05:32:41;;;;;;;9.98;9.65;;;14.40;99.90;;;;;;4897133;29;20392;-83
2023/08/27 05:35:10;;;;;;;7.28;7.07;;;14.30;99.90;;;;;;4914556;29;20046;-80
2023/08/27 05:37:36;;;;;;;6.75;6.55;;;14.30;99.90;;;;;;4899699;29;20064;-80
2023/08/27 05:40:05;;;;;;;5.60;5.40;;;14.30;99.90;;;;;;4896747;29;20063;-81
2023/08/27 05:42:30;;;;;;;6.60;6.40;;;14.20;99.90;;;;;;4898307;29;20184;-81
2023/08/27 05:44:56;;;;;;;6.10;5.90;;;14.20;99.90;;;;;;4890295;29;20106;-80
2023/08/27 05:47:26;;;;;;;5.20;5.10;;;14.30;99.90;;;;;;4901583;29;20024;-80
2023/08/27 05:49:52;;;;;;;4.80;4.70;;;14.40;99.90;;;;;;4889616;29;20452;-80
2023/08/27 05:52:20;;;;;;;7.45;7.25;;;14.40;99.90;;;;;;4897910;29;20127;-80
2023/08/27 05:54:46;;;;;;;6.72;6.53;;;14.30;99.90;;;;;;4895696;29;20088;-81
2023/08/27 05:57:14;;;;;;;4.00;3.90;;;14.10;99.90;;;;;;4889354;29;20032;-81
2023/08/27 05:59:42;;;;;;;4.40;4.30;;;14.00;99.90;;;;;;4899837;29;20043;-81
2023/08/27 06:02:10;;;;;;;4.40;4.30;;;14.20;99.90;;;;;;4901937;29;20028;-80
2023/08/27 06:04:35;;;;;;;3.90;3.80;;;14.30;99.90;;;;;;4888653;29;20064;-79
2023/08/27 06:07:03;;;;;;;4.00;3.90;;;14.40;99.90;;;;;;4900765;29;20108;-82
2023/08/27 06:09:29;;;;;;;7.35;7.15;;;14.40;99.90;;;;;;4902926;29;20039;-80
2023/08/27 06:11:54;;;;;;;7.10;6.90;;;14.50;99.90;;;;;;4900616;29;20393;-80
2023/08/27 06:14:22;;;;;;;6.65;6.45;;;14.60;99.90;;;;;;4890455;29;20396;-80
2023/08/27 06:16:50;;;;;;;5.90;5.70;;;14.60;99.90;;;;;;4900795;29;20059;-80
2023/08/27 06:19:18;;;;;;;5.57;5.38;;;14.70;99.90;;;;;;4898867;29;20028;-80
2023/08/27 06:21:43;;;;;;;5.22;5.13;;;14.70;99.90;;;;;;4907268;29;20028;-80
2023/08/27 06:24:09;;;;;;;5.60;5.40;;;14.70;99.90;;;;;;4910705;29;20033;-80
2023/08/27 06:26:35;;;;;;;5.53;5.32;;;14.60;99.90;;;;;;4915037;29;20052;-81
2023/08/27 06:29:01;;;;;;;6.10;5.90;;;14.50;99.90;;;;;;4901858;29;20028;-80
2023/08/27 06:31:26;;;;;;;6.50;6.30;;;14.40;99.90;;;;;;4901902;29;20047;-80
2023/08/27 06:33:52;;;;;;;6.80;6.60;;;14.50;99.90;;;;;;4914982;29;20036;-80
2023/08/27 06:36:18;;;;;;;6.97;6.78;;;14.60;99.90;;;;;;4900212;29;20049;-80
2023/08/27 06:38:43;;;;;;;7.70;7.50;;;14.70;99.90;;;;;;4900604;29;20024;-82
2023/08/27 06:41:09;;;;;;;8.63;8.30;;;14.50;99.90;;;;;;4897134;29;21134;-80
2023/08/27 06:43:39;;;;;;;6.95;6.75;;;14.50;99.90;;;;;;4880173;29;20374;-82
2023/08/27 06:46:05;;;;;;;7.15;6.95;;;14.50;99.90;;;;;;4903999;29;20024;-83
2023/08/27 06:48:30;;;;;;;3.90;3.80;;;14.60;99.90;;;;;;4901452;29;20477;-80
2023/08/27 06:50:56;;;;;;;4.00;3.90;;;14.60;99.90;;;;;;4900229;29;20031;-81
2023/08/27 06:53:24;;;;;;;6.55;6.35;;;14.50;99.90;;;;;;4903522;29;20049;-81
2023/08/27 06:55:49;;;;;;;7.60;7.40;;;14.40;99.90;;;;;;4898089;29;20467;-80
2023/08/27 06:58:15;;;;;;;5.30;5.20;;;14.40;99.90;;;;;;4900194;29;20028;-81
2023/08/27 07:00:44;;;;;;;7.00;6.80;;;14.40;99.90;;;;;;4899228;29;20048;-81
2023/08/27 07:03:13;;;;;;;6.40;6.20;;;14.40;99.90;;;;;;4896254;29;20112;-81
2023/08/27 07:05:39;;;;;;;7.20;7.00;;;14.50;99.90;;;;;;4899488;29;20029;-81
2023/08/27 07:08:04;;;;;;;3.70;3.60;;;14.40;99.90;;;;;;4902304;29;20044;-81
2023/08/27 07:10:30;;;;;;;3.60;3.50;;;14.50;99.90;;;;;;4915427;29;20032;-80
2023/08/27 07:12:56;;;;;;;3.20;3.10;;;14.60;99.90;;;;;;4896290;29;20043;-80
2023/08/27 07:15:21;;;;;;;2.83;2.72;;;14.60;99.90;;;;;;4902284;29;20032;-81
2023/08/27 07:17:47;;;;;;;3.25;3.15;;;14.70;99.90;;;;;;4904068;29;20762;-80
2023/08/27 07:20:15;;;;;;;2.80;2.70;;;14.80;99.90;;;;;;4900082;29;20051;-83
2023/08/27 07:22:40;;;;;;;3.15;3.05;;;16.30;99.90;;;;;;4906994;29;20025;-80
2023/08/27 07:25:11;;;;;;;2.28;2.28;;;16.50;99.90;;;;;;4892058;29;20024;-81
2023/08/27 07:27:37;;;;;;;2.20;2.20;;;16.50;99.90;;;;;;4900632;29;20032;-80
2023/08/27 07:30:04;;;;;;;2.45;2.45;;;16.30;99.90;;;;;;4891359;29;20029;-81
2023/08/27 07:32:32;;;;;;;2.30;2.30;;;16.20;99.90;;;;;;4903781;29;20040;-81
2023/08/27 07:34:58;;;;;;;5.88;5.68;;;16.30;99.90;;;;;;4901905;29;20040;-80
2023/08/27 07:37:24;;;;;;;5.18;4.97;;;16.20;99.90;;;;;;4916164;29;20031;-80
2023/08/27 07:39:49;;;;;;;2.47;2.38;;;16.40;99.90;;;;;;4899224;29;20016;-80
2023/08/27 07:42:15;;;;;;;6.50;6.30;;;16.50;99.90;;;;;;4901058;29;20032;-80
2023/08/27 07:44:40;;;;;;;1.80;1.80;;;16.60;99.90;;;;;;4901701;29;20044;-81
2023/08/27 07:47:06;;;;;;;2.60;2.50;;;16.50;99.90;;;;;;4906763;29;20028;-80
2023/08/27 07:49:32;;;;;;;1.85;1.85;;;16.60;99.90;;;;;;4902170;29;20425;-80
2023/08/27 07:51:57;;;;;;;5.55;5.35;;;16.40;99.90;;;;;;4905015;29;20427;-80
2023/08/27 07:54:23;;;;;;;3.88;3.78;;;16.70;99.90;;;;;;4890828;29;20029;-80
2023/08/27 07:56:48;;;;;;;3.47;3.38;;;16.70;99.90;;;;;;4917777;29;20083;-80
2023/08/27 07:59:14;;;;;;;1.80;1.80;;;16.70;99.90;;;;;;4901217;29;20020;-80
2023/08/27 08:01:40;;;;;;;2.42;2.40;;;16.60;99.90;;;;;;4901233;29;20803;-80
2023/08/27 08:04:05;;;;;;;3.20;3.10;;;16.70;99.90;;;;;;4903028;29;20024;-80
2023/08/27 08:06:31;;;;;;;1.10;1.10;;;16.70;99.90;;;;;;4899991;29;20032;-80
2023/08/27 08:08:57;;;;;;;2.75;2.70;;;16.80;99.90;;;;;;4904552;29;20129;-81
2023/08/27 08:11:24;;;;;;;3.90;3.80;;;17.00;99.90;;;;;;4900665;29;20114;-80
2023/08/27 08:13:52;;;;;;;4.00;3.90;;;17.00;99.90;;;;;;4901050;29;20079;-80
2023/08/27 08:16:19;;;;;;;3.80;3.70;;;17.00;99.90;;;;;;4902261;29;20048;-81
2023/08/27 08:18:47;;;;;;;3.42;3.33;;;16.90;99.90;;;;;;4898899;29;20052;-80
2023/08/27 08:21:13;;;;;;;3.58;3.47;;;17.00;99.90;;;;;;4888260;29;20496;-81
2023/08/27 08:23:39;;;;;;;2.60;2.60;;;16.80;99.90;;;;;;4884413;29;20060;-80
2023/08/27 08:26:05;;;;;;;2.30;2.30;;;16.90;99.90;;;;;;4884461;29;20055;-79
2023/08/27 08:28:34;;;;;;;4.15;4.05;;;17.00;99.90;;;;;;4886058;29;20036;-81
2023/08/27 08:31:00;;;;;;;2.88;2.78;;;17.10;99.90;;;;;;4893200;29;20050;-81
2023/08/27 08:33:29;;;;;;;2.85;2.75;;;17.10;99.90;;;;;;4898924;29;20642;-80
2023/08/27 08:38:29;;;;;;;1.63;1.63;;;17.10;99.90;;;;;;4968073;23;20056;-80
2023/08/27 08:40:59;;;;;;;1.00;1.00;;;17.10;99.90;;;;;;4921650;29;20024;-81
2023/08/27 08:43:36;;;;;;;3.03;1.60;;;17.30;99.90;;;;;;4923912;29;20028;-81
2023/08/27 08:46:04;;;;;;;0.50;0.50;;;17.40;99.90;;;;;;4920098;29;20042;-81
2023/08/27 08:48:41;;;;;;;4.13;2.40;;;17.00;99.90;;;;;;4921595;28;20028;-86
2023/08/27 08:51:08;;;;;;;0.50;0.50;;;17.10;99.90;;;;;;4922725;29;20031;-81
2023/08/27 08:53:41;;;;;;;0.50;0.50;;;17.20;99.90;;;;;;4918523;29;20117;-81
2023/08/27 08:56:14;;;;;;;1.75;1.65;;;16.90;99.90;;;;;;4923804;29;20492;-82
2023/08/27 08:58:42;;;;;;;0.60;0.60;;;17.20;99.90;;;;;;4920963;29;20079;-81
2023/08/27 09:01:11;;;;;;;0.60;0.60;;;17.40;99.90;;;;;;4923425;29;20333;-81
2023/08/27 09:03:40;;;;;;;0.65;0.65;;;17.30;99.90;;;;;;4920218;29;20023;-82
2023/08/27 09:06:05;;;;;;;0.60;0.60;;;17.10;99.90;;;;;;4919678;29;20023;-82
2023/08/27 09:08:36;;;;;;;0.60;0.60;;;17.20;99.90;;;;;;4927596;29;20035;-82
2023/08/27 09:11:04;;;;;;;0.80;0.80;;;17.30;99.90;;;;;;4927384;29;20472;-83
2023/08/27 09:13:30;;;;;;;1.30;1.30;;;17.50;99.90;;;;;;4923014;29;20396;-83
2023/08/27 09:15:55;;;;;;;2.13;2.08;;;17.50;99.90;;;;;;4918447;29;20016;-83
2023/08/27 09:18:21;;;;;;;1.40;1.40;;;17.70;99.90;;;;;;4913909;29;20035;-84
2023/08/27 09:20:47;;;;;;;1.33;1.33;;;17.70;99.90;;;;;;4909455;29;20032;-84
2023/08/27 09:23:13;;;;;;;1.30;1.30;;;17.30;99.90;;;;;;4918026;29;20476;-85
2023/08/27 09:25:39;;;;;;;1.30;1.30;;;17.80;99.90;;;;;;4923259;29;20036;-86
2023/08/27 09:28:06;;;;;;;1.27;1.27;;;17.60;99.90;;;;;;4926785;29;20107;-86
2023/08/27 09:30:32;;;;;;;1.23;1.23;;;17.60;99.90;;;;;;4920008;29;20032;-87
2023/08/27 09:32:59;;;;;;;1.40;1.40;;;17.70;99.90;;;;;;4913831;29;20526;-84
2023/08/27 09:35:37;;;;;;;1.20;1.20;;;18.00;99.90;;;;;;4924703;29;20027;-86
2023/08/27 09:38:06;;;;;;;1.17;1.17;;;18.00;99.90;;;;;;4918134;29;20068;-84
2023/08/27 09:40:32;;;;;;;5.55;4.95;;;18.20;99.90;;;;;;4919027;29;20032;-88
2023/08/27 09:43:06;;;;;;;1.70;1.70;;;18.60;99.90;;;;;;4918253;29;20343;-84
2023/08/27 09:45:33;;;;;;;1.17;1.17;;;18.70;99.90;;;;;;4922536;29;20099;-84
2023/08/27 09:48:00;;;;;;;1.52;1.52;;;18.50;99.90;;;;;;4921172;29;20024;-83
2023/08/27 09:50:28;;;;;;;1.40;1.40;;;19.00;99.90;;;;;;4918270;29;20024;-83
2023/08/27 09:53:04;;;;;;;1.20;1.20;;;18.80;99.90;;;;;;4919218;29;20063;-82
2023/08/27 09:55:33;;;;;;;1.10;1.10;;;19.10;99.90;;;;;;4919577;29;20059;-83
2023/08/27 09:57:59;;;;;;;1.35;1.35;;;19.10;99.90;;;;;;4911581;29;20043;-83
2023/08/27 10:00:28;;;;;;;1.10;1.10;;;18.70;99.90;;;;;;4917234;29;20032;-83
2023/08/27 10:02:54;;;;;;;1.10;1.10;;;18.60;99.90;;;;;;4922161;29;20131;-83
2023/08/27 10:05:34;;;;;;;1.13;1.13;;;18.70;99.90;;;;;;4917060;29;20500;-83
2023/08/27 10:08:02;;;;;;;1.20;1.20;;;18.50;99.90;;;;;;4921793;29;20028;-83
2023/08/27 10:10:29;;;;;;;1.00;1.00;;;18.50;99.90;;;;;;4917293;29;20039;-83
2023/08/27 10:12:56;;;;;;;1.33;1.33;;;18.30;99.90;;;;;;4916213;29;20043;-82
2023/08/27 10:15:24;;;;;;;1.05;1.05;;;18.30;99.90;;;;;;4912819;29;20031;-83
2023/08/27 10:17:52;;;;;;;0.90;0.90;;;18.30;99.90;;;;;;4919650;29;20112;-83
2023/08/27 10:20:23;;;;;;;1.08;1.08;;;18.30;99.90;;;;;;4921909;29;20054;-83
2023/08/27 10:22:49;;;;;;;1.00;1.00;;;18.40;99.90;;;;;;4920270;29;20035;-82
2023/08/27 10:25:18;;;;;;;1.10;1.10;;;18.40;99.90;;;;;;4923065;29;20020;-82
2023/08/27 10:27:47;;;;;;;1.10;1.10;;;18.30;99.90;;;;;;4916907;29;20166;-83
2023/08/27 10:30:14;;;;;;;1.15;1.15;;;18.40;99.90;;;;;;4919938;29;20491;-83
2023/08/27 10:32:39;;;;;;;1.10;1.10;;;18.60;99.90;;;;;;4924507;29;20400;-87
2023/08/27 10:35:05;;;;;;;1.10;1.10;;;18.70;99.90;;;;;;4921635;29;20028;-83
2023/08/27 10:37:38;;;;;;;1.10;1.10;;;18.60;99.90;;;;;;4922013;29;20051;-83
2023/08/27 10:40:08;;;;;;;1.30;1.30;;;18.70;99.90;;;;;;4917607;29;20020;-82
2023/08/27 10:42:36;;;;;;;1.13;1.13;;;18.60;99.90;;;;;;4923161;29;20096;-83
2023/08/27 10:45:37;;;;;;;1.20;1.20;;;18.80;99.90;;;;;;4924841;29;20055;-83
2023/08/27 10:48:18;;;;;;;1.15;1.15;;;18.60;99.90;;;;;;4900057;29;20448;-83
2023/08/27 10:50:54;;;;;;;1.00;1.00;;;18.90;99.90;;;;;;4923393;29;20032;-83
2023/08/27 10:53:20;;;;;;;2.38;2.28;;;18.90;99.90;;;;;;4918230;29;20044;-83
2023/08/27 10:55:52;;;;;;;1.10;1.10;;;18.70;99.90;;;;;;4923555;29;20482;-83
2023/08/27 10:58:21;;;;;;;1.20;1.20;;;18.80;99.90;;;;;;4918540;29;20028;-82
2023/08/27 11:01:05;;;;;;;1.30;1.30;;;18.90;99.90;;;;;;4918931;29;20028;-82
2023/08/27 11:04:07;;;;;;;1.60;1.60;;;19.30;99.90;;;;;;4921995;29;20032;-81
2023/08/27 11:06:46;;;;;;;1.40;1.40;;;19.20;99.90;;;;;;4939882;29;20076;-82
2023/08/27 11:09:14;;;;;;;1.30;1.30;;;19.60;99.90;;;;;;4918358;29;20047;-84
2023/08/27 11:11:42;;;;;;;1.60;1.60;;;20.00;99.90;;;;;;4928827;28;20091;-84
2023/08/27 11:14:08;;;;;;;1.50;1.50;;;20.30;99.90;;;;;;4916299;29;20053;-83
2023/08/27 11:16:45;;;;;;;1.50;1.50;;;20.60;99.90;;;;;;4912115;29;20036;-86
2023/08/27 11:19:11;;;;;;;1.73;1.73;;;20.20;99.90;;;;;;4911485;29;20035;-82
2023/08/27 11:21:44;;;;;;;2.55;2.35;;;20.10;99.90;;;;;;4910075;29;20066;-86
2023/08/27 11:24:17;;;;;;;4.47;1.92;;;19.90;99.90;;;;;;4914604;29;20063;-83
2023/08/27 11:26:45;;;;;;;1.20;1.20;;;19.80;99.90;;;;;;4917423;29;21676;-82
2023/08/27 11:29:11;;;;;;;1.27;1.27;;;20.10;99.90;;;;;;4901938;29;20090;-81
2023/08/27 11:31:44;;;;;;;1.83;1.83;;;20.40;99.90;;;;;;4912252;29;20031;-84
2023/08/27 11:34:16;;;;;;;1.60;1.60;;;20.80;99.70;;;;;;4905577;29;20041;-82
2023/08/27 11:36:44;;;;;;;1.70;1.70;;;20.50;98.80;;;;;;4914044;29;20028;-83
2023/08/27 11:39:15;;;;;;;2.13;2.13;;;20.60;99.30;;;;;;4914746;29;20119;-80
2023/08/27 11:41:46;;;;;;;1.10;1.10;;;20.70;98.80;;;;;;4931382;28;20103;-81
2023/08/27 11:44:13;;;;;;;1.00;1.00;;;20.90;97.80;;;;;;4916870;29;20524;-81
2023/08/27 11:46:41;;;;;;;1.00;1.00;;;20.90;97.90;;;;;;4919632;29;20036;-79
2023/08/27 11:49:08;;;;;;;0.95;0.95;;;20.70;97.60;;;;;;4920262;29;20429;-82
2023/08/27 11:51:36;;;;;;;0.90;0.90;;;20.60;99.20;;;;;;4917136;29;20032;-82
2023/08/27 11:54:07;;;;;;;1.20;1.20;;;21.00;98.00;;;;;;4918667;29;20039;-85
2023/08/27 11:56:39;;;;;;;1.48;1.38;;;21.40;97.90;;;;;;4921658;29;20543;-81
2023/08/27 11:59:05;;;;;;;0.88;0.88;;;21.90;96.30;;;;;;4916599;29;20055;-80
2023/08/27 12:01:32;;;;;;;1.02;1.02;;;22.20;93.80;;;;;;4919583;29;20050;-82
2023/08/27 12:03:58;;;;;;;1.10;1.10;;;22.50;95.00;;;;;;4916956;29;20064;-82
2023/08/27 12:06:26;;;;;;;1.10;1.10;;;22.60;93.90;;;;;;4919922;29;20401;-78
2023/08/27 12:08:59;;;;;;;1.23;1.23;;;22.10;93.60;;;;;;4920513;29;20058;-82
2023/08/27 12:11:27;;;;;;;1.10;1.10;;;22.00;93.70;;;;;;4924282;29;20131;-81
2023/08/27 12:14:02;;;;;;;1.00;1.00;;;22.10;94.00;;;;;;4919514;29;20115;-83
2023/08/27 12:16:28;;;;;;;1.00;1.00;;;21.80;93.10;;;;;;4920967;29;20054;-82
2023/08/27 12:19:05;;;;;;;1.10;1.10;;;21.60;93.10;;;;;;4922931;29;20529;-82
2023/08/27 12:21:50;;;;;;;0.70;0.70;;;21.70;93.00;;;;;;4913805;29;20035;-79
2023/08/27 12:24:36;;;;;;;0.88;0.88;;;21.50;91.10;;;;;;4914558;29;20063;-80
2023/08/27 12:27:09;;;;;;;0.98;0.98;;;21.50;91.70;;;;;;4919806;29;20032;-80
2023/08/27 12:29:46;;;;;;;0.80;0.80;;;21.40;92.30;;;;;;4917048;29;20182;-80
2023/08/27 12:32:12;;;;;;;0.70;0.70;;;21.40;91.30;;;;;;4910389;28;20054;-82
2023/08/27 12:34:43;;;;;;;0.70;0.70;;;21.20;93.30;;;;;;4915810;29;20028;-81
2023/08/27 12:37:12;;;;;;;0.60;0.60;;;21.00;93.00;;;;;;4914046;29;20488;-81
2023/08/27 12:39:38;;;;;;;0.70;0.70;;;20.00;95.00;;;;;;4915534;29;20059;-81
2023/08/27 12:42:05;;;;;;;1.42;1.40;;;19.10;96.10;;;;;;4920181;29;20172;-80
2023/08/27 12:44:32;;;;;;;0.50;0.50;;;18.00;99.90;;;;;;4921893;29;21443;-78
2023/08/27 12:46:58;;;;;;;0.70;0.70;;;16.80;99.90;;;;;;4909967;29;20019;-79
2023/08/27 12:49:26;;;;;;;0.60;0.60;;;16.20;99.90;;;;;;4912546;29;20383;-80